sensor_id;sensor_type;location;lat;lon;timestamp;P1;durP1;ratioP1;P2;durP2;ratioP2
52718;SDS011;38616;42.140;24.760;2023-06-19T00:01:46;8.98;;;3.88;;
52718;SDS011;38616;42.140;24.760;2023-06-19T00:04:14;5.55;;;4.47;;
52718;SDS011;38616;42.140;24.760;2023-06-19T00:06:39;9.27;;;5.05;;
52718;SDS011;38616;42.140;24.760;2023-06-19T00:09:06;6.45;;;4.43;;
52718;SDS011;38616;42.140;24.760;2023-06-19T00:11:32;8.15;;;4.70;;
52718;SDS011;38616;42.140;24.760;2023-06-19T00:13:58;12.50;;;4.65;;
52718;SDS011;38616;42.140;24.760;2023-06-19T00:16:23;6.38;;;4.22;;
52718;SDS011;38616;42.140;24.760;2023-06-19T00:18:50;7.20;;;4.47;;
52718;SDS011;38616;42.140;24.760;2023-06-19T00:21:16;6.68;;;4.22;;
52718;SDS011;38616;42.140;24.760;2023-06-19T00:23:42;9.95;;;4.28;;
52718;SDS011;38616;42.140;24.760;2023-06-19T00:26:07;7.10;;;4.15;;
52718;SDS011;38616;42.140;24.760;2023-06-19T00:28:33;6.25;;;4.55;;
52718;SDS011;38616;42.140;24.760;2023-06-19T00:30:58;8.15;;;4.60;;
52718;SDS011;38616;42.140;24.760;2023-06-19T00:33:24;11.65;;;4.88;;
52718;SDS011;38616;42.140;24.760;2023-06-19T00:35:50;6.75;;;4.75;;
52718;SDS011;38616;42.140;24.760;2023-06-19T00:38:16;8.50;;;4.40;;
52718;SDS011;38616;42.140;24.760;2023-06-19T00:40:41;5.90;;;4.28;;
52718;SDS011;38616;42.140;24.760;2023-06-19T00:43:06;7.10;;;4.45;;
52718;SDS011;38616;42.140;24.760;2023-06-19T00:45:32;7.80;;;4.20;;
52718;SDS011;38616;42.140;24.760;2023-06-19T00:47:58;9.20;;;4.50;;
52718;SDS011;38616;42.140;24.760;2023-06-19T00:50:24;8.83;;;4.33;;
52718;SDS011;38616;42.140;24.760;2023-06-19T00:52:50;6.30;;;4.30;;
52718;SDS011;38616;42.140;24.760;2023-06-19T00:55:16;7.30;;;4.28;;
52718;SDS011;38616;42.140;24.760;2023-06-19T00:57:42;6.32;;;3.92;;
52718;SDS011;38616;42.140;24.760;2023-06-19T01:00:09;5.13;;;3.78;;
52718;SDS011;38616;42.140;24.760;2023-06-19T01:02:37;5.40;;;3.80;;
52718;SDS011;38616;42.140;24.760;2023-06-19T01:05:03;8.27;;;3.92;;
52718;SDS011;38616;42.140;24.760;2023-06-19T01:07:39;5.70;;;4.38;;
52718;SDS011;38616;42.140;24.760;2023-06-19T01:10:29;5.82;;;3.92;;
52718;SDS011;38616;42.140;24.760;2023-06-19T01:13:01;6.43;;;4.00;;
52718;SDS011;38616;42.140;24.760;2023-06-19T01:15:34;5.35;;;3.72;;
52718;SDS011;38616;42.140;24.760;2023-06-19T01:18:00;7.85;;;3.83;;
52718;SDS011;38616;42.140;24.760;2023-06-19T01:20:27;5.70;;;4.18;;
52718;SDS011;38616;42.140;24.760;2023-06-19T01:22:53;6.65;;;4.38;;
52718;SDS011;38616;42.140;24.760;2023-06-19T01:25:21;5.05;;;3.80;;
52718;SDS011;38616;42.140;24.760;2023-06-19T01:27:48;6.60;;;4.20;;
52718;SDS011;38616;42.140;24.760;2023-06-19T01:30:13;8.13;;;4.13;;
52718;SDS011;38616;42.140;24.760;2023-06-19T01:35:34;8.70;;;3.90;;
52718;SDS011;38616;42.140;24.760;2023-06-19T01:40:29;4.22;;;3.33;;
52718;SDS011;38616;42.140;24.760;2023-06-19T01:42:57;7.05;;;3.70;;
52718;SDS011;38616;42.140;24.760;2023-06-19T01:45:26;5.90;;;4.03;;
52718;SDS011;38616;42.140;24.760;2023-06-19T01:47:55;5.50;;;3.63;;
52718;SDS011;38616;42.140;24.760;2023-06-19T01:50:21;6.18;;;4.30;;
52718;SDS011;38616;42.140;24.760;2023-06-19T01:52:47;5.35;;;3.80;;
52718;SDS011;38616;42.140;24.760;2023-06-19T01:55:13;6.20;;;3.38;;
52718;SDS011;38616;42.140;24.760;2023-06-19T01:57:39;6.88;;;3.90;;
52718;SDS011;38616;42.140;24.760;2023-06-19T02:00:05;8.68;;;4.20;;
52718;SDS011;38616;42.140;24.760;2023-06-19T02:02:35;9.68;;;4.22;;
52718;SDS011;38616;42.140;24.760;2023-06-19T02:05:01;5.18;;;3.58;;
52718;SDS011;38616;42.140;24.760;2023-06-19T02:07:27;8.32;;;4.13;;
52718;SDS011;38616;42.140;24.760;2023-06-19T02:09:52;6.55;;;4.28;;
52718;SDS011;38616;42.140;24.760;2023-06-19T02:12:17;7.80;;;3.97;;
52718;SDS011;38616;42.140;24.760;2023-06-19T02:14:43;5.72;;;3.50;;
52718;SDS011;38616;42.140;24.760;2023-06-19T02:17:08;6.75;;;3.90;;
52718;SDS011;38616;42.140;24.760;2023-06-19T02:19:34;5.55;;;3.70;;
52718;SDS011;38616;42.140;24.760;2023-06-19T02:21:59;6.80;;;4.13;;
52718;SDS011;38616;42.140;24.760;2023-06-19T02:24:25;6.07;;;3.88;;
52718;SDS011;38616;42.140;24.760;2023-06-19T02:26:50;10.57;;;3.70;;
52718;SDS011;38616;42.140;24.760;2023-06-19T02:29:18;6.03;;;3.65;;
52718;SDS011;38616;42.140;24.760;2023-06-19T02:31:45;6.43;;;4.38;;
52718;SDS011;38616;42.140;24.760;2023-06-19T02:34:10;8.40;;;4.15;;
52718;SDS011;38616;42.140;24.760;2023-06-19T02:36:38;4.85;;;3.50;;
52718;SDS011;38616;42.140;24.760;2023-06-19T02:41:30;5.28;;;3.50;;
52718;SDS011;38616;42.140;24.760;2023-06-19T02:43:56;8.07;;;4.68;;
52718;SDS011;38616;42.140;24.760;2023-06-19T02:46:21;5.85;;;3.85;;
52718;SDS011;38616;42.140;24.760;2023-06-19T02:48:46;15.07;;;4.90;;
52718;SDS011;38616;42.140;24.760;2023-06-19T02:51:12;5.47;;;3.80;;
52718;SDS011;38616;42.140;24.760;2023-06-19T02:53:37;4.72;;;3.30;;
52718;SDS011;38616;42.140;24.760;2023-06-19T02:56:03;6.45;;;3.20;;
52718;SDS011;38616;42.140;24.760;2023-06-19T02:58:29;5.28;;;3.42;;
52718;SDS011;38616;42.140;24.760;2023-06-19T03:00:54;8.85;;;4.00;;
52718;SDS011;38616;42.140;24.760;2023-06-19T03:03:20;10.55;;;4.28;;
52718;SDS011;38616;42.140;24.760;2023-06-19T03:05:45;8.77;;;4.45;;
52718;SDS011;38616;42.140;24.760;2023-06-19T03:08:10;5.32;;;3.70;;
52718;SDS011;38616;42.140;24.760;2023-06-19T03:10:36;8.02;;;4.22;;
52718;SDS011;38616;42.140;24.760;2023-06-19T03:13:01;10.25;;;3.72;;
52718;SDS011;38616;42.140;24.760;2023-06-19T03:15:27;12.77;;;4.35;;
52718;SDS011;38616;42.140;24.760;2023-06-19T03:17:53;7.90;;;4.10;;
52718;SDS011;38616;42.140;24.760;2023-06-19T03:20:18;6.13;;;3.80;;
52718;SDS011;38616;42.140;24.760;2023-06-19T03:22:45;8.20;;;3.80;;
52718;SDS011;38616;42.140;24.760;2023-06-19T03:25:11;5.18;;;3.63;;
52718;SDS011;38616;42.140;24.760;2023-06-19T03:27:37;8.25;;;4.03;;
52718;SDS011;38616;42.140;24.760;2023-06-19T03:30:03;7.18;;;3.78;;
52718;SDS011;38616;42.140;24.760;2023-06-19T03:32:33;8.95;;;4.38;;
52718;SDS011;38616;42.140;24.760;2023-06-19T03:34:59;7.90;;;3.55;;
52718;SDS011;38616;42.140;24.760;2023-06-19T03:37:24;6.55;;;4.40;;
52718;SDS011;38616;42.140;24.760;2023-06-19T03:39:50;7.00;;;4.45;;
52718;SDS011;38616;42.140;24.760;2023-06-19T03:42:15;6.65;;;4.30;;
52718;SDS011;38616;42.140;24.760;2023-06-19T03:44:41;13.93;;;4.03;;
52718;SDS011;38616;42.140;24.760;2023-06-19T03:47:06;7.65;;;3.45;;
52718;SDS011;38616;42.140;24.760;2023-06-19T03:49:32;9.02;;;3.55;;
52718;SDS011;38616;42.140;24.760;2023-06-19T03:51:57;9.48;;;4.00;;
52718;SDS011;38616;42.140;24.760;2023-06-19T03:54:23;4.97;;;3.97;;
52718;SDS011;38616;42.140;24.760;2023-06-19T03:56:49;8.68;;;3.63;;
52718;SDS011;38616;42.140;24.760;2023-06-19T03:59:14;7.22;;;3.90;;
52718;SDS011;38616;42.140;24.760;2023-06-19T04:01:39;8.65;;;4.15;;
52718;SDS011;38616;42.140;24.760;2023-06-19T04:04:07;9.20;;;4.00;;
52718;SDS011;38616;42.140;24.760;2023-06-19T04:06:32;7.78;;;3.95;;
52718;SDS011;38616;42.140;24.760;2023-06-19T04:08:58;7.80;;;4.80;;
52718;SDS011;38616;42.140;24.760;2023-06-19T04:11:24;11.57;;;4.45;;
52718;SDS011;38616;42.140;24.760;2023-06-19T04:13:49;7.70;;;4.20;;
52718;SDS011;38616;42.140;24.760;2023-06-19T04:16:14;7.65;;;4.30;;
52718;SDS011;38616;42.140;24.760;2023-06-19T04:18:40;6.38;;;4.05;;
52718;SDS011;38616;42.140;24.760;2023-06-19T04:21:05;6.18;;;4.28;;
52718;SDS011;38616;42.140;24.760;2023-06-19T04:23:31;8.68;;;4.25;;
52718;SDS011;38616;42.140;24.760;2023-06-19T04:25:56;6.03;;;3.97;;
52718;SDS011;38616;42.140;24.760;2023-06-19T04:28:22;7.78;;;4.43;;
52718;SDS011;38616;42.140;24.760;2023-06-19T04:30:47;11.50;;;4.60;;
52718;SDS011;38616;42.140;24.760;2023-06-19T04:33:12;11.98;;;4.43;;
52718;SDS011;38616;42.140;24.760;2023-06-19T04:35:38;9.90;;;4.30;;
52718;SDS011;38616;42.140;24.760;2023-06-19T04:38:08;10.50;;;3.97;;
52718;SDS011;38616;42.140;24.760;2023-06-19T04:40:34;10.52;;;4.05;;
52718;SDS011;38616;42.140;24.760;2023-06-19T04:43:03;7.45;;;4.65;;
52718;SDS011;38616;42.140;24.760;2023-06-19T04:45:30;6.63;;;4.03;;
52718;SDS011;38616;42.140;24.760;2023-06-19T04:47:56;10.73;;;4.03;;
52718;SDS011;38616;42.140;24.760;2023-06-19T04:50:21;13.07;;;4.85;;
52718;SDS011;38616;42.140;24.760;2023-06-19T04:52:47;13.68;;;7.50;;
52718;SDS011;38616;42.140;24.760;2023-06-19T04:55:15;7.97;;;4.50;;
52718;SDS011;38616;42.140;24.760;2023-06-19T04:57:40;8.57;;;4.65;;
52718;SDS011;38616;42.140;24.760;2023-06-19T05:00:06;5.85;;;3.70;;
52718;SDS011;38616;42.140;24.760;2023-06-19T05:02:32;6.70;;;4.65;;
52718;SDS011;38616;42.140;24.760;2023-06-19T05:04:59;14.90;;;5.38;;
52718;SDS011;38616;42.140;24.760;2023-06-19T05:07:30;6.97;;;4.38;;
52718;SDS011;38616;42.140;24.760;2023-06-19T05:09:56;10.15;;;4.43;;
52718;SDS011;38616;42.140;24.760;2023-06-19T05:12:24;7.38;;;4.47;;
52718;SDS011;38616;42.140;24.760;2023-06-19T05:17:15;9.65;;;4.22;;
52718;SDS011;38616;42.140;24.760;2023-06-19T05:19:40;8.48;;;4.88;;
52718;SDS011;38616;42.140;24.760;2023-06-19T05:22:06;13.60;;;5.97;;
52718;SDS011;38616;42.140;24.760;2023-06-19T05:24:34;6.85;;;4.38;;
52718;SDS011;38616;42.140;24.760;2023-06-19T05:26:59;6.43;;;3.83;;
52718;SDS011;38616;42.140;24.760;2023-06-19T05:29:24;6.13;;;3.92;;
52718;SDS011;38616;42.140;24.760;2023-06-19T05:31:50;7.53;;;3.90;;
52718;SDS011;38616;42.140;24.760;2023-06-19T05:34:15;8.80;;;3.65;;
52718;SDS011;38616;42.140;24.760;2023-06-19T05:36:41;9.07;;;4.32;;
52718;SDS011;38616;42.140;24.760;2023-06-19T05:39:10;5.50;;;3.88;;
52718;SDS011;38616;42.140;24.760;2023-06-19T05:41:35;8.32;;;4.03;;
52718;SDS011;38616;42.140;24.760;2023-06-19T05:44:02;7.28;;;3.95;;
52718;SDS011;38616;42.140;24.760;2023-06-19T05:46:28;7.72;;;3.85;;
52718;SDS011;38616;42.140;24.760;2023-06-19T05:48:53;9.70;;;4.10;;
52718;SDS011;38616;42.140;24.760;2023-06-19T05:51:19;6.28;;;3.42;;
52718;SDS011;38616;42.140;24.760;2023-06-19T05:53:45;5.50;;;3.92;;
52718;SDS011;38616;42.140;24.760;2023-06-19T05:56:11;6.47;;;3.88;;
52718;SDS011;38616;42.140;24.760;2023-06-19T05:58:37;6.35;;;4.07;;
52718;SDS011;38616;42.140;24.760;2023-06-19T06:01:02;7.35;;;4.28;;
52718;SDS011;38616;42.140;24.760;2023-06-19T06:03:28;5.88;;;3.78;;
52718;SDS011;38616;42.140;24.760;2023-06-19T06:08:27;7.85;;;4.10;;
52718;SDS011;38616;42.140;24.760;2023-06-19T06:10:53;8.30;;;4.43;;
52718;SDS011;38616;42.140;24.760;2023-06-19T06:13:19;7.68;;;4.10;;
52718;SDS011;38616;42.140;24.760;2023-06-19T06:15:44;7.18;;;3.67;;
52718;SDS011;38616;42.140;24.760;2023-06-19T06:18:09;11.63;;;3.50;;
52718;SDS011;38616;42.140;24.760;2023-06-19T06:20:35;5.93;;;3.38;;
52718;SDS011;38616;42.140;24.760;2023-06-19T06:23:00;7.45;;;3.90;;
52718;SDS011;38616;42.140;24.760;2023-06-19T06:25:26;5.78;;;3.70;;
52718;SDS011;38616;42.140;24.760;2023-06-19T06:27:51;10.45;;;3.90;;
52718;SDS011;38616;42.140;24.760;2023-06-19T06:30:16;6.07;;;3.75;;
52718;SDS011;38616;42.140;24.760;2023-06-19T06:32:42;4.43;;;3.30;;
52718;SDS011;38616;42.140;24.760;2023-06-19T06:35:07;6.25;;;4.20;;
52718;SDS011;38616;42.140;24.760;2023-06-19T06:37:33;8.05;;;4.30;;
52718;SDS011;38616;42.140;24.760;2023-06-19T06:39:59;7.30;;;4.10;;
52718;SDS011;38616;42.140;24.760;2023-06-19T06:42:24;7.50;;;4.45;;
52718;SDS011;38616;42.140;24.760;2023-06-19T06:44:49;5.68;;;4.05;;
52718;SDS011;38616;42.140;24.760;2023-06-19T06:47:15;7.35;;;3.75;;
52718;SDS011;38616;42.140;24.760;2023-06-19T06:49:40;4.75;;;3.95;;
52718;SDS011;38616;42.140;24.760;2023-06-19T06:52:06;7.25;;;3.60;;
52718;SDS011;38616;42.140;24.760;2023-06-19T06:54:32;6.00;;;3.63;;
52718;SDS011;38616;42.140;24.760;2023-06-19T06:56:57;7.25;;;3.72;;
52718;SDS011;38616;42.140;24.760;2023-06-19T06:59:25;8.32;;;3.95;;
52718;SDS011;38616;42.140;24.760;2023-06-19T07:01:52;12.30;;;3.90;;
52718;SDS011;38616;42.140;24.760;2023-06-19T07:04:21;7.68;;;3.70;;
52718;SDS011;38616;42.140;24.760;2023-06-19T07:06:46;5.72;;;3.17;;
52718;SDS011;38616;42.140;24.760;2023-06-19T07:09:12;8.27;;;3.55;;
52718;SDS011;38616;42.140;24.760;2023-06-19T07:11:37;9.20;;;4.30;;
52718;SDS011;38616;42.140;24.760;2023-06-19T07:14:05;5.00;;;3.55;;
52718;SDS011;38616;42.140;24.760;2023-06-19T07:16:31;5.18;;;3.78;;
52718;SDS011;38616;42.140;24.760;2023-06-19T07:18:56;10.00;;;3.53;;
52718;SDS011;38616;42.140;24.760;2023-06-19T07:21:22;4.57;;;3.47;;
52718;SDS011;38616;42.140;24.760;2023-06-19T07:23:47;7.50;;;3.80;;
52718;SDS011;38616;42.140;24.760;2023-06-19T07:26:13;10.13;;;3.60;;
52718;SDS011;38616;42.140;24.760;2023-06-19T07:28:39;5.07;;;3.60;;
52718;SDS011;38616;42.140;24.760;2023-06-19T07:31:05;5.53;;;3.47;;
52718;SDS011;38616;42.140;24.760;2023-06-19T07:33:30;6.80;;;3.50;;
52718;SDS011;38616;42.140;24.760;2023-06-19T07:35:56;5.20;;;3.33;;
52718;SDS011;38616;42.140;24.760;2023-06-19T07:38:22;9.70;;;4.32;;
52718;SDS011;38616;42.140;24.760;2023-06-19T07:40:48;5.32;;;3.55;;
52718;SDS011;38616;42.140;24.760;2023-06-19T07:43:14;6.50;;;3.45;;
52718;SDS011;38616;42.140;24.760;2023-06-19T07:45:39;8.20;;;3.38;;
52718;SDS011;38616;42.140;24.760;2023-06-19T07:48:05;6.65;;;4.13;;
52718;SDS011;38616;42.140;24.760;2023-06-19T07:50:30;5.70;;;3.80;;
52718;SDS011;38616;42.140;24.760;2023-06-19T07:52:57;6.47;;;3.92;;
52718;SDS011;38616;42.140;24.760;2023-06-19T07:55:22;5.78;;;3.63;;
52718;SDS011;38616;42.140;24.760;2023-06-19T07:57:48;7.65;;;3.67;;
52718;SDS011;38616;42.140;24.760;2023-06-19T08:00:13;6.20;;;3.40;;
52718;SDS011;38616;42.140;24.760;2023-06-19T08:02:42;7.15;;;3.60;;
52718;SDS011;38616;42.140;24.760;2023-06-19T08:05:08;7.32;;;3.97;;
52718;SDS011;38616;42.140;24.760;2023-06-19T08:07:34;8.80;;;3.97;;
52718;SDS011;38616;42.140;24.760;2023-06-19T08:10:00;5.55;;;3.70;;
52718;SDS011;38616;42.140;24.760;2023-06-19T08:12:26;10.02;;;3.72;;
52718;SDS011;38616;42.140;24.760;2023-06-19T08:14:51;6.55;;;4.07;;
52718;SDS011;38616;42.140;24.760;2023-06-19T08:17:16;5.07;;;3.65;;
52718;SDS011;38616;42.140;24.760;2023-06-19T08:19:42;5.22;;;3.53;;
52718;SDS011;38616;42.140;24.760;2023-06-19T08:22:08;5.47;;;3.72;;
52718;SDS011;38616;42.140;24.760;2023-06-19T08:24:34;6.30;;;3.88;;
52718;SDS011;38616;42.140;24.760;2023-06-19T08:27:01;8.85;;;4.25;;
52718;SDS011;38616;42.140;24.760;2023-06-19T08:29:26;7.70;;;4.28;;
52718;SDS011;38616;42.140;24.760;2023-06-19T08:31:52;7.88;;;4.07;;
52718;SDS011;38616;42.140;24.760;2023-06-19T08:34:17;6.85;;;3.92;;
52718;SDS011;38616;42.140;24.760;2023-06-19T08:36:43;7.72;;;4.13;;
52718;SDS011;38616;42.140;24.760;2023-06-19T08:39:08;8.15;;;4.22;;
52718;SDS011;38616;42.140;24.760;2023-06-19T08:41:35;6.05;;;3.63;;
52718;SDS011;38616;42.140;24.760;2023-06-19T08:44:02;10.30;;;4.05;;
52718;SDS011;38616;42.140;24.760;2023-06-19T08:46:28;4.68;;;3.63;;
52718;SDS011;38616;42.140;24.760;2023-06-19T08:48:54;7.07;;;3.90;;
52718;SDS011;38616;42.140;24.760;2023-06-19T08:51:20;6.25;;;3.50;;
52718;SDS011;38616;42.140;24.760;2023-06-19T08:53:53;8.30;;;3.90;;
52718;SDS011;38616;42.140;24.760;2023-06-19T08:56:20;8.82;;;4.00;;
52718;SDS011;38616;42.140;24.760;2023-06-19T08:58:45;7.60;;;4.30;;
52718;SDS011;38616;42.140;24.760;2023-06-19T09:01:13;6.28;;;3.63;;
52718;SDS011;38616;42.140;24.760;2023-06-19T09:03:41;6.18;;;3.35;;
52718;SDS011;38616;42.140;24.760;2023-06-19T09:06:07;6.88;;;4.00;;
52718;SDS011;38616;42.140;24.760;2023-06-19T09:08:32;5.53;;;3.85;;
52718;SDS011;38616;42.140;24.760;2023-06-19T09:10:59;6.00;;;3.63;;
52718;SDS011;38616;42.140;24.760;2023-06-19T09:13:26;5.10;;;3.83;;
52718;SDS011;38616;42.140;24.760;2023-06-19T09:15:57;6.32;;;3.92;;
52718;SDS011;38616;42.140;24.760;2023-06-19T09:18:43;6.82;;;3.90;;
52718;SDS011;38616;42.140;24.760;2023-06-19T09:21:20;7.85;;;4.50;;
52718;SDS011;38616;42.140;24.760;2023-06-19T09:23:50;5.85;;;3.67;;
52718;SDS011;38616;42.140;24.760;2023-06-19T09:26:17;6.35;;;3.95;;
52718;SDS011;38616;42.140;24.760;2023-06-19T09:28:44;5.90;;;3.40;;
52718;SDS011;38616;42.140;24.760;2023-06-19T09:31:10;8.85;;;3.97;;
52718;SDS011;38616;42.140;24.760;2023-06-19T09:33:37;6.28;;;3.67;;
52718;SDS011;38616;42.140;24.760;2023-06-19T09:36:04;6.18;;;3.33;;
52718;SDS011;38616;42.140;24.760;2023-06-19T09:38:37;9.70;;;4.05;;
52718;SDS011;38616;42.140;24.760;2023-06-19T09:41:05;8.32;;;4.03;;
52718;SDS011;38616;42.140;24.760;2023-06-19T09:43:36;5.68;;;3.72;;
52718;SDS011;38616;42.140;24.760;2023-06-19T09:46:03;7.93;;;4.13;;
52718;SDS011;38616;42.140;24.760;2023-06-19T09:48:30;7.47;;;3.78;;
52718;SDS011;38616;42.140;24.760;2023-06-19T09:53:38;8.35;;;3.83;;
52718;SDS011;38616;42.140;24.760;2023-06-19T09:58:32;8.63;;;3.58;;
52718;SDS011;38616;42.140;24.760;2023-06-19T10:00:59;7.38;;;3.28;;
52718;SDS011;38616;42.140;24.760;2023-06-19T10:03:31;6.53;;;3.42;;
52718;SDS011;38616;42.140;24.760;2023-06-19T10:05:58;5.05;;;3.65;;
52718;SDS011;38616;42.140;24.760;2023-06-19T10:08:31;6.85;;;3.28;;
52718;SDS011;38616;42.140;24.760;2023-06-19T10:11:04;5.05;;;3.20;;
52718;SDS011;38616;42.140;24.760;2023-06-19T10:13:31;5.38;;;3.50;;
52718;SDS011;38616;42.140;24.760;2023-06-19T10:15:58;4.65;;;3.45;;
52718;SDS011;38616;42.140;24.760;2023-06-19T10:18:24;4.75;;;3.75;;
52718;SDS011;38616;42.140;24.760;2023-06-19T10:20:51;8.68;;;3.40;;
52718;SDS011;38616;42.140;24.760;2023-06-19T10:23:19;5.45;;;3.33;;
52718;SDS011;38616;42.140;24.760;2023-06-19T10:25:47;4.72;;;3.40;;
52718;SDS011;38616;42.140;24.760;2023-06-19T10:28:17;10.82;;;3.40;;
52718;SDS011;38616;42.140;24.760;2023-06-19T10:31:07;5.80;;;3.45;;
52718;SDS011;38616;42.140;24.760;2023-06-19T10:33:34;4.93;;;3.20;;
52718;SDS011;38616;42.140;24.760;2023-06-19T10:41:25;5.53;;;3.03;;
52718;SDS011;38616;42.140;24.760;2023-06-19T10:43:55;6.97;;;2.80;;
52718;SDS011;38616;42.140;24.760;2023-06-19T10:46:35;4.22;;;3.15;;
52718;SDS011;38616;42.140;24.760;2023-06-19T10:49:01;5.40;;;3.38;;
52718;SDS011;38616;42.140;24.760;2023-06-19T10:51:38;4.72;;;3.15;;
52718;SDS011;38616;42.140;24.760;2023-06-19T10:54:06;4.75;;;2.83;;
52718;SDS011;38616;42.140;24.760;2023-06-19T10:56:33;3.95;;;2.92;;
52718;SDS011;38616;42.140;24.760;2023-06-19T10:58:59;3.45;;;2.70;;
52718;SDS011;38616;42.140;24.760;2023-06-19T11:04:21;6.05;;;3.38;;
52718;SDS011;38616;42.140;24.760;2023-06-19T11:06:50;5.53;;;3.17;;
52718;SDS011;38616;42.140;24.760;2023-06-19T11:09:15;4.47;;;3.50;;
52718;SDS011;38616;42.140;24.760;2023-06-19T11:11:45;6.32;;;3.33;;
52718;SDS011;38616;42.140;24.760;2023-06-19T11:14:11;6.30;;;3.95;;
52718;SDS011;38616;42.140;24.760;2023-06-19T11:16:38;5.35;;;3.15;;
52718;SDS011;38616;42.140;24.760;2023-06-19T11:19:07;5.90;;;3.53;;
52718;SDS011;38616;42.140;24.760;2023-06-19T11:21:34;4.38;;;3.17;;
52718;SDS011;38616;42.140;24.760;2023-06-19T11:24:05;6.63;;;3.10;;
52718;SDS011;38616;42.140;24.760;2023-06-19T11:29:12;8.00;;;3.50;;
52718;SDS011;38616;42.140;24.760;2023-06-19T11:31:39;6.53;;;3.45;;
52718;SDS011;38616;42.140;24.760;2023-06-19T11:34:04;4.35;;;3.38;;
52718;SDS011;38616;42.140;24.760;2023-06-19T11:36:30;4.15;;;2.83;;
52718;SDS011;38616;42.140;24.760;2023-06-19T11:38:55;8.00;;;3.47;;
52718;SDS011;38616;42.140;24.760;2023-06-19T11:41:27;10.05;;;3.47;;
52718;SDS011;38616;42.140;24.760;2023-06-19T11:44:00;3.38;;;2.58;;
52718;SDS011;38616;42.140;24.760;2023-06-19T11:46:30;3.73;;;2.90;;
52718;SDS011;38616;42.140;24.760;2023-06-19T11:49:15;5.13;;;3.00;;
52718;SDS011;38616;42.140;24.760;2023-06-19T11:51:44;6.97;;;3.22;;
52718;SDS011;38616;42.140;24.760;2023-06-19T11:54:10;5.78;;;2.55;;
52718;SDS011;38616;42.140;24.760;2023-06-19T11:56:38;4.60;;;2.88;;
52718;SDS011;38616;42.140;24.760;2023-06-19T11:59:04;4.65;;;3.42;;
52718;SDS011;38616;42.140;24.760;2023-06-19T12:01:31;6.72;;;3.33;;
52718;SDS011;38616;42.140;24.760;2023-06-19T12:03:58;5.22;;;3.15;;
52718;SDS011;38616;42.140;24.760;2023-06-19T12:06:23;5.63;;;2.60;;
52718;SDS011;38616;42.140;24.760;2023-06-19T12:08:49;4.45;;;3.00;;
52718;SDS011;38616;42.140;24.760;2023-06-19T12:11:15;4.85;;;3.08;;
52718;SDS011;38616;42.140;24.760;2023-06-19T12:13:40;5.88;;;3.13;;
52718;SDS011;38616;42.140;24.760;2023-06-19T12:16:06;3.58;;;2.90;;
52718;SDS011;38616;42.140;24.760;2023-06-19T12:18:32;5.25;;;3.15;;
52718;SDS011;38616;42.140;24.760;2023-06-19T12:20:58;8.35;;;3.55;;
52718;SDS011;38616;42.140;24.760;2023-06-19T12:23:23;6.43;;;3.03;;
52718;SDS011;38616;42.140;24.760;2023-06-19T12:25:48;9.20;;;3.63;;
52718;SDS011;38616;42.140;24.760;2023-06-19T12:28:14;3.47;;;2.40;;
52718;SDS011;38616;42.140;24.760;2023-06-19T12:30:43;4.22;;;2.40;;
52718;SDS011;38616;42.140;24.760;2023-06-19T12:33:09;3.70;;;2.50;;
52718;SDS011;38616;42.140;24.760;2023-06-19T12:35:34;5.22;;;2.85;;
52718;SDS011;38616;42.140;24.760;2023-06-19T12:38:01;5.05;;;2.33;;
52718;SDS011;38616;42.140;24.760;2023-06-19T12:40:26;4.82;;;2.55;;
52718;SDS011;38616;42.140;24.760;2023-06-19T12:42:51;5.53;;;2.72;;
52718;SDS011;38616;42.140;24.760;2023-06-19T12:45:17;5.03;;;3.08;;
52718;SDS011;38616;42.140;24.760;2023-06-19T12:47:42;5.70;;;2.80;;
52718;SDS011;38616;42.140;24.760;2023-06-19T12:50:08;3.80;;;2.50;;
52718;SDS011;38616;42.140;24.760;2023-06-19T12:52:34;4.60;;;2.13;;
52718;SDS011;38616;42.140;24.760;2023-06-19T12:54:59;3.10;;;2.55;;
52718;SDS011;38616;42.140;24.760;2023-06-19T12:57:26;5.20;;;2.42;;
52718;SDS011;38616;42.140;24.760;2023-06-19T12:59:51;4.15;;;2.50;;
52718;SDS011;38616;42.140;24.760;2023-06-19T13:02:17;5.22;;;2.58;;
52718;SDS011;38616;42.140;24.760;2023-06-19T13:04:42;5.88;;;2.85;;
52718;SDS011;38616;42.140;24.760;2023-06-19T13:07:08;4.03;;;2.55;;
52718;SDS011;38616;42.140;24.760;2023-06-19T13:09:33;4.90;;;2.40;;
52718;SDS011;38616;42.140;24.760;2023-06-19T13:14:26;5.88;;;2.95;;
52718;SDS011;38616;42.140;24.760;2023-06-19T13:16:51;6.80;;;2.67;;
52718;SDS011;38616;42.140;24.760;2023-06-19T13:19:16;4.53;;;2.60;;
52718;SDS011;38616;42.140;24.760;2023-06-19T13:21:42;5.40;;;2.58;;
52718;SDS011;38616;42.140;24.760;2023-06-19T13:24:08;5.10;;;2.58;;
52718;SDS011;38616;42.140;24.760;2023-06-19T13:26:33;6.95;;;3.22;;
52718;SDS011;38616;42.140;24.760;2023-06-19T13:28:59;6.60;;;2.67;;
52718;SDS011;38616;42.140;24.760;2023-06-19T13:31:25;10.65;;;2.97;;
52718;SDS011;38616;42.140;24.760;2023-06-19T13:33:53;7.00;;;2.50;;
52718;SDS011;38616;42.140;24.760;2023-06-19T13:36:19;3.83;;;2.28;;
52718;SDS011;38616;42.140;24.760;2023-06-19T13:38:45;3.22;;;2.45;;
52718;SDS011;38616;42.140;24.760;2023-06-19T13:41:11;2.83;;;2.50;;
52718;SDS011;38616;42.140;24.760;2023-06-19T13:43:37;3.70;;;2.40;;
52718;SDS011;38616;42.140;24.760;2023-06-19T13:46:05;6.25;;;2.75;;
52718;SDS011;38616;42.140;24.760;2023-06-19T13:48:31;3.33;;;2.15;;
52718;SDS011;38616;42.140;24.760;2023-06-19T13:50:57;7.20;;;3.42;;
52718;SDS011;38616;42.140;24.760;2023-06-19T13:53:24;5.47;;;3.50;;
52718;SDS011;38616;42.140;24.760;2023-06-19T13:55:50;10.40;;;4.20;;
52718;SDS011;38616;42.140;24.760;2023-06-19T13:58:15;6.60;;;3.45;;
52718;SDS011;38616;42.140;24.760;2023-06-19T14:00:41;6.75;;;3.60;;
52718;SDS011;38616;42.140;24.760;2023-06-19T14:03:06;8.23;;;3.85;;
52718;SDS011;38616;42.140;24.760;2023-06-19T14:05:32;6.05;;;4.28;;
52718;SDS011;38616;42.140;24.760;2023-06-19T14:07:58;8.27;;;3.88;;
52718;SDS011;38616;42.140;24.760;2023-06-19T14:10:24;7.70;;;3.88;;
52718;SDS011;38616;42.140;24.760;2023-06-19T14:12:50;6.40;;;3.38;;
52718;SDS011;38616;42.140;24.760;2023-06-19T14:15:15;5.63;;;3.92;;
52718;SDS011;38616;42.140;24.760;2023-06-19T14:17:41;5.75;;;3.83;;
52718;SDS011;38616;42.140;24.760;2023-06-19T14:20:07;6.25;;;3.58;;
52718;SDS011;38616;42.140;24.760;2023-06-19T14:22:35;5.93;;;3.75;;
52718;SDS011;38616;42.140;24.760;2023-06-19T14:25:00;5.00;;;4.00;;
52718;SDS011;38616;42.140;24.760;2023-06-19T14:27:27;8.25;;;3.75;;
52718;SDS011;38616;42.140;24.760;2023-06-19T14:29:54;7.35;;;3.92;;
52718;SDS011;38616;42.140;24.760;2023-06-19T14:32:20;7.20;;;3.85;;
52718;SDS011;38616;42.140;24.760;2023-06-19T14:34:47;6.82;;;3.90;;
52718;SDS011;38616;42.140;24.760;2023-06-19T14:37:12;11.40;;;3.40;;
52718;SDS011;38616;42.140;24.760;2023-06-19T14:39:38;6.63;;;3.78;;
52718;SDS011;38616;42.140;24.760;2023-06-19T14:42:04;6.32;;;3.40;;
52718;SDS011;38616;42.140;24.760;2023-06-19T14:44:30;4.80;;;3.55;;
52718;SDS011;38616;42.140;24.760;2023-06-19T14:46:55;6.20;;;3.53;;
52718;SDS011;38616;42.140;24.760;2023-06-19T14:51:48;8.57;;;3.78;;
52718;SDS011;38616;42.140;24.760;2023-06-19T14:54:14;7.80;;;4.63;;
52718;SDS011;38616;42.140;24.760;2023-06-19T14:56:42;4.82;;;4.03;;
52718;SDS011;38616;42.140;24.760;2023-06-19T14:59:09;5.78;;;4.03;;
52718;SDS011;38616;42.140;24.760;2023-06-19T15:01:34;8.43;;;4.43;;
52718;SDS011;38616;42.140;24.760;2023-06-19T15:04:00;7.22;;;4.72;;